createdAt,value
2023-02-07T00:01:25.572Z,-1.59
2023-02-07T00:03:55.307Z,-1.59
2023-02-07T00:06:28.733Z,-1.62
2023-02-07T00:08:58.633Z,-1.64
2023-02-07T00:11:26.939Z,-1.66
2023-02-07T00:13:56.204Z,-1.65
2023-02-07T00:16:26.311Z,-1.64
2023-02-07T00:18:54.922Z,-1.64
2023-02-07T00:21:24.016Z,-1.64
2023-02-07T00:23:52.845Z,-1.62
2023-02-07T00:26:24.362Z,-1.58
2023-02-07T00:28:53.456Z,-1.57
2023-02-07T00:31:26.424Z,-1.59
2023-02-07T00:34:01.815Z,-1.62
2023-02-07T00:36:32.304Z,-1.64
2023-02-07T00:39:02.237Z,-1.65
2023-02-07T00:41:31.931Z,-1.76
2023-02-07T00:44:01.235Z,-2.68
2023-02-07T00:46:31.134Z,-2.89
2023-02-07T00:49:01.344Z,-2.96
2023-02-07T00:51:30.255Z,-3.02
2023-02-07T00:53:59.838Z,-3.07
2023-02-07T00:56:29.282Z,-3.13
2023-02-07T00:58:59.489Z,-3.16
2023-02-07T01:01:27.759Z,-3.17
2023-02-07T01:03:58.548Z,-3.20
2023-02-07T01:06:28.128Z,-3.25
2023-02-07T01:08:59.351Z,-3.30
2023-02-07T01:11:29.916Z,-3.37
2023-02-07T01:14:00.734Z,-3.43
2023-02-07T01:16:31.417Z,-3.46
2023-02-07T01:19:01.547Z,-3.49
2023-02-07T01:21:30.243Z,-3.49
2023-02-07T01:23:58.789Z,-2.70
2023-02-07T01:26:26.928Z,-2.25
2023-02-07T01:28:55.675Z,-2.19
2023-02-07T01:31:23.930Z,-2.16
2023-02-07T01:33:59.096Z,-2.13
2023-02-07T01:36:28.403Z,-2.11
2023-02-07T01:38:58.809Z,-2.09
2023-02-07T01:41:28.496Z,-2.07
2023-02-07T01:43:58.848Z,-2.03
2023-02-07T01:46:27.438Z,-2.00
2023-02-07T01:48:57.759Z,-1.95
2023-02-07T01:51:25.726Z,-1.91
2023-02-07T01:53:56.509Z,-1.88
2023-02-07T01:56:31.515Z,-1.85
2023-02-07T01:59:02.454Z,-1.85
2023-02-07T02:01:32.657Z,-1.84
2023-02-07T02:04:00.653Z,-1.86
2023-02-07T02:06:30.653Z,-1.85
2023-02-07T02:09:00.152Z,-1.81
2023-02-07T02:12:06.856Z,-1.79
2023-02-07T02:15:03.116Z,-1.75
2023-02-07T02:18:02.915Z,-1.71
2023-02-07T02:20:54.158Z,-1.68
2023-02-07T02:23:39.876Z,-1.64
2023-02-07T02:26:20.316Z,-1.63
2023-02-07T02:29:13.292Z,-1.63
2023-02-07T02:32:14.812Z,-1.64
2023-02-07T02:34:54.100Z,-1.61
2023-02-07T02:37:29.786Z,-1.53
2023-02-07T02:40:22.584Z,-1.46
2023-02-07T02:42:59.133Z,-1.43
2023-02-07T02:45:36.902Z,-1.41
2023-02-07T02:48:05.779Z,-1.38
2023-02-07T02:50:34.417Z,-1.35
2023-02-07T02:53:02.551Z,-1.34
2023-02-07T02:56:04.371Z,-1.33
2023-02-07T02:58:54.930Z,-1.38
2023-02-07T03:01:56.312Z,-1.42
2023-02-07T03:04:46.140Z,-1.42
2023-02-07T03:07:21.814Z,-1.41
2023-02-07T03:10:03.048Z,-1.40
2023-02-07T03:12:55.940Z,-1.38
2023-02-07T03:15:37.923Z,-1.35
2023-02-07T03:18:14.413Z,-1.33
2023-02-07T03:20:47.974Z,-1.30
2023-02-07T03:23:16.711Z,-1.29
2023-02-07T03:25:44.646Z,-1.27
2023-02-07T03:28:12.695Z,-1.23
2023-02-07T03:30:43.117Z,-1.20
2023-02-07T03:33:12.128Z,-1.21
2023-02-07T03:35:53.506Z,-1.23
2023-02-07T03:38:21.948Z,-1.22
2023-02-07T03:40:53.667Z,-1.17
2023-02-07T03:43:26.852Z,-1.06
2023-02-07T03:45:55.645Z,-0.99
2023-02-07T03:48:24.348Z,-0.95
2023-02-07T03:50:53.091Z,-0.93
2023-02-07T03:53:21.132Z,-0.92
2023-02-07T03:55:49.261Z,-0.88
2023-02-07T03:58:17.270Z,-0.85
2023-02-07T04:00:45.450Z,-0.87
2023-02-07T04:03:13.849Z,-0.88
2023-02-07T04:05:43.950Z,-0.90
2023-02-07T04:08:12.214Z,-0.95
2023-02-07T04:10:40.406Z,-0.98
2023-02-07T04:13:13.283Z,-0.99
2023-02-07T04:15:41.426Z,-0.95
2023-02-07T04:18:10.041Z,-0.90
2023-02-07T04:20:38.705Z,-0.85
2023-02-07T04:23:06.735Z,-0.84
2023-02-07T04:25:35.538Z,-0.86
2023-02-07T04:28:03.599Z,-0.89
2023-02-07T04:30:33.429Z,-0.87
2023-02-07T04:33:01.412Z,-0.77
2023-02-07T04:35:29.357Z,-0.75
2023-02-07T04:37:57.475Z,-0.71
2023-02-07T04:40:25.535Z,-0.63
2023-02-07T04:42:53.524Z,-0.57
